Time;durP1;ratioP1;P1;durP2;ratioP2;P2;SDS_P1;SDS_P2;PMS_P1;PMS_P2;Temp;Humidity;BMP_temperature;BMP_pressure;BME280_temperature;BME280_humidity;BME280_pressure;Samples;Min_cycle;Max_cycle;Signal;HPM_P1;HPM_P2
2022/12/28 00:02:00;;;;;;;4.40;2.00;;;5.40;99.90;;;;;;5033732;28;20502;-64
2022/12/28 00:04:27;;;;;;;5.28;2.22;;;5.40;99.90;;;;;;5032885;28;20410;-64
2022/12/28 00:06:54;;;;;;;5.65;1.80;;;5.40;99.90;;;;;;5032856;28;20415;-63
2022/12/28 00:09:20;;;;;;;5.47;2.57;;;5.40;99.90;;;;;;5032446;28;20906;-63
2022/12/28 00:11:47;;;;;;;2.70;1.70;;;5.40;99.90;;;;;;5031976;28;20411;-63
2022/12/28 00:14:14;;;;;;;5.43;1.80;;;5.40;99.90;;;;;;5032181;28;20415;-63
2022/12/28 00:16:42;;;;;;;2.95;1.98;;;5.40;99.90;;;;;;5031819;28;20954;-62
2022/12/28 00:19:12;;;;;;;5.30;1.95;;;5.30;99.90;;;;;;5031828;28;20426;-63
2022/12/28 00:21:38;;;;;;;4.85;1.90;;;5.30;99.90;;;;;;5032287;28;20419;-62
2022/12/28 00:24:06;;;;;;;4.32;2.00;;;5.30;99.90;;;;;;5031938;28;20415;-63
2022/12/28 00:26:35;;;;;;;4.93;2.08;;;5.30;99.90;;;;;;5033857;28;20415;-62
2022/12/28 00:29:02;;;;;;;5.28;1.85;;;5.20;99.90;;;;;;5036225;28;20414;-64
2022/12/28 00:31:29;;;;;;;4.00;1.65;;;5.20;99.90;;;;;;5036467;28;20426;-63
2022/12/28 00:33:57;;;;;;;4.43;2.00;;;5.20;99.90;;;;;;5036146;28;20452;-62
2022/12/28 00:36:24;;;;;;;4.32;1.60;;;5.20;99.90;;;;;;5035949;28;20426;-64
2022/12/28 00:38:52;;;;;;;4.65;2.10;;;5.10;99.90;;;;;;5036361;28;20422;-64
2022/12/28 00:41:19;;;;;;;3.45;1.83;;;5.10;99.90;;;;;;5036799;28;20501;-63
2022/12/28 00:43:46;;;;;;;3.72;1.88;;;5.10;99.90;;;;;;5036658;28;20415;-63
2022/12/28 00:46:12;;;;;;;5.82;1.80;;;5.10;99.90;;;;;;5035729;28;21005;-64
2022/12/28 00:48:39;;;;;;;3.58;1.70;;;5.10;99.90;;;;;;5035787;28;20438;-63
2022/12/28 00:51:11;;;;;;;5.65;2.00;;;5.10;99.90;;;;;;5035531;28;20910;-64
2022/12/28 00:53:38;;;;;;;5.05;1.98;;;5.10;99.90;;;;;;5035742;28;20423;-64
2022/12/28 00:56:07;;;;;;;4.10;2.13;;;5.10;99.90;;;;;;5035356;28;20438;-64
2022/12/28 00:58:34;;;;;;;6.25;2.40;;;5.10;99.90;;;;;;5035568;28;20465;-64
2022/12/28 01:01:01;;;;;;;4.60;1.80;;;5.10;99.90;;;;;;5035742;28;20540;-63
2022/12/28 01:03:28;;;;;;;5.72;1.77;;;5.10;99.90;;;;;;5035958;28;20403;-62
2022/12/28 01:05:54;;;;;;;3.72;1.75;;;5.10;99.90;;;;;;5035363;28;21017;-63
2022/12/28 01:08:23;;;;;;;4.88;2.05;;;5.20;99.90;;;;;;5036030;28;20423;-63
2022/12/28 01:10:50;;;;;;;3.95;1.75;;;5.20;99.90;;;;;;5035861;28;20415;-62
2022/12/28 01:13:17;;;;;;;3.83;1.80;;;5.20;99.90;;;;;;5035407;28;20505;-62
2022/12/28 01:15:43;;;;;;;4.32;1.80;;;5.20;99.90;;;;;;5035209;28;20427;-62
2022/12/28 01:18:10;;;;;;;3.58;2.00;;;5.20;99.90;;;;;;5035802;28;20445;-62
2022/12/28 01:20:39;;;;;;;3.35;2.17;;;5.20;99.90;;;;;;5035828;28;20423;-62
2022/12/28 01:23:06;;;;;;;2.50;1.60;;;5.20;99.90;;;;;;5035534;28;20414;-63
2022/12/28 01:25:34;;;;;;;3.50;1.60;;;5.20;99.90;;;;;;5035087;28;20414;-63
2022/12/28 01:28:01;;;;;;;5.65;1.73;;;5.20;99.90;;;;;;5034653;28;20795;-63
2022/12/28 01:30:29;;;;;;;3.28;1.80;;;5.20;99.90;;;;;;5034697;28;20926;-63
2022/12/28 01:32:58;;;;;;;4.10;2.40;;;5.30;99.90;;;;;;5034984;28;20416;-63
2022/12/28 01:35:25;;;;;;;4.10;1.80;;;5.30;99.90;;;;;;5034920;28;20431;-62
2022/12/28 01:37:52;;;;;;;3.78;1.70;;;5.30;99.90;;;;;;5034246;28;20421;-62
2022/12/28 01:40:19;;;;;;;3.35;1.60;;;5.30;99.90;;;;;;5035770;28;20419;-62
2022/12/28 01:42:47;;;;;;;4.65;2.00;;;5.30;99.90;;;;;;5034923;28;20433;-62
2022/12/28 01:45:17;;;;;;;4.50;1.95;;;5.40;99.90;;;;;;5035093;28;20406;-62
2022/12/28 01:47:46;;;;;;;3.40;1.93;;;5.40;99.90;;;;;;5033802;28;20510;-61
2022/12/28 01:50:16;;;;;;;5.20;1.67;;;5.40;99.90;;;;;;5034851;28;20907;-62
2022/12/28 01:52:49;;;;;;;5.10;1.70;;;5.40;99.90;;;;;;5034815;28;20430;-62
2022/12/28 01:55:19;;;;;;;3.90;2.00;;;5.40;99.90;;;;;;5034787;28;20760;-62
2022/12/28 01:57:52;;;;;;;4.72;1.75;;;5.40;99.90;;;;;;5034880;28;20437;-62
2022/12/28 02:00:19;;;;;;;5.60;1.80;;;5.40;99.90;;;;;;5035059;28;20419;-63
2022/12/28 02:02:52;;;;;;;4.15;1.80;;;5.40;99.90;;;;;;5034862;28;20419;-62
2022/12/28 02:05:19;;;;;;;3.60;1.95;;;5.40;99.90;;;;;;5034417;28;20417;-62
2022/12/28 02:07:52;;;;;;;5.43;2.10;;;5.40;99.90;;;;;;5034330;28;20523;-62
2022/12/28 02:10:20;;;;;;;4.38;1.80;;;5.40;99.90;;;;;;5034614;28;20418;-62
2022/12/28 02:12:48;;;;;;;4.80;1.77;;;5.40;99.90;;;;;;5034211;28;20906;-62
2022/12/28 02:15:16;;;;;;;4.73;1.90;;;5.40;99.90;;;;;;5034163;28;20521;-62
2022/12/28 02:17:42;;;;;;;3.97;1.70;;;5.40;99.90;;;;;;5034245;28;20428;-61
2022/12/28 02:20:10;;;;;;;3.97;1.70;;;5.40;99.90;;;;;;5034537;28;20419;-63
2022/12/28 02:23:20;;;;;;;3.65;1.83;;;5.50;99.90;;;;;;5033953;28;20419;-63
2022/12/28 02:26:04;;;;;;;3.35;1.80;;;5.50;99.90;;;;;;5033729;28;20771;-63
2022/12/28 02:29:05;;;;;;;5.00;1.70;;;5.50;99.90;;;;;;5033948;28;20410;-63
2022/12/28 02:31:40;;;;;;;4.68;1.70;;;5.60;99.90;;;;;;5020361;28;20414;-61
2022/12/28 02:34:16;;;;;;;2.67;1.70;;;5.60;99.90;;;;;;5033735;28;20418;-61
2022/12/28 02:36:50;;;;;;;4.95;1.80;;;5.60;99.90;;;;;;5033788;28;20422;-63
2022/12/28 02:39:21;;;;;;;3.90;1.80;;;5.60;99.90;;;;;;5033626;28;20414;-63
2022/12/28 02:41:50;;;;;;;5.28;1.77;;;5.60;99.90;;;;;;5033923;28;20437;-61
2022/12/28 02:52:41;;;;;;;5.50;2.20;;;5.70;99.90;;;;;;5033448;28;20403;-63
2022/12/28 02:58:31;;;;;;;4.00;1.70;;;5.70;99.90;;;;;;5033392;28;20620;-62
2022/12/28 03:01:09;;;;;;;4.27;1.93;;;5.70;99.90;;;;;;5033287;28;20419;-62
2022/12/28 03:03:41;;;;;;;4.88;2.00;;;5.70;99.90;;;;;;5033219;28;20403;-63
2022/12/28 03:09:06;;;;;;;3.33;1.65;;;5.80;99.90;;;;;;5033453;28;20394;-62
2022/12/28 03:11:40;;;;;;;4.20;1.90;;;5.80;99.90;;;;;;5033601;28;20457;-62
2022/12/28 03:14:10;;;;;;;3.33;1.80;;;5.80;99.90;;;;;;5033398;28;20522;-63
2022/12/28 03:33:18;;;;;;;3.17;2.30;;;5.80;99.90;;;;;;5033093;28;20395;-62
2022/12/28 03:35:50;;;;;;;5.20;2.53;;;5.80;99.90;;;;;;5032940;28;20442;-62
2022/12/28 03:38:26;;;;;;;5.05;2.53;;;5.80;99.90;;;;;;5032580;28;20415;-62
2022/12/28 03:41:00;;;;;;;4.68;2.60;;;5.80;99.90;;;;;;5032877;28;20508;-62
2022/12/28 03:43:40;;;;;;;4.85;2.50;;;5.90;99.90;;;;;;5032476;28;20411;-62
2022/12/28 03:46:13;;;;;;;3.72;2.35;;;5.80;99.90;;;;;;5032589;28;20403;-62
2022/12/28 03:48:43;;;;;;;4.30;2.40;;;5.80;99.90;;;;;;5032331;28;20419;-62
2022/12/28 03:51:11;;;;;;;6.00;2.60;;;5.80;99.90;;;;;;5033292;28;20415;-62
2022/12/28 03:53:40;;;;;;;6.20;2.90;;;5.80;99.90;;;;;;5032836;28;20426;-63
2022/12/28 03:56:09;;;;;;;6.88;2.80;;;5.80;99.90;;;;;;5031887;28;20989;-62
2022/12/28 03:58:36;;;;;;;4.65;2.58;;;5.80;99.90;;;;;;5032988;28;20430;-62
2022/12/28 04:01:03;;;;;;;3.13;2.67;;;5.80;99.90;;;;;;5032182;28;20411;-63
2022/12/28 04:03:30;;;;;;;5.67;2.53;;;5.80;99.90;;;;;;5032613;28;20418;-62
2022/12/28 04:05:58;;;;;;;5.00;2.78;;;5.70;99.90;;;;;;5032462;28;20447;-62
2022/12/28 04:10:54;;;;;;;5.00;2.40;;;5.70;99.90;;;;;;5090373;28;20361;-63
2022/12/28 04:13:20;;;;;;;5.32;2.90;;;5.70;99.90;;;;;;5089678;28;20411;-62
2022/12/28 04:15:56;;;;;;;5.85;2.80;;;5.70;99.90;;;;;;5089868;28;20419;-62
2022/12/28 04:18:23;;;;;;;4.40;2.80;;;5.70;99.90;;;;;;5069291;28;20462;-62
2022/12/28 04:20:50;;;;;;;3.03;2.58;;;5.80;99.90;;;;;;5069739;28;20408;-64
2022/12/28 04:23:17;;;;;;;2.80;2.20;;;5.80;99.90;;;;;;5094098;22;20440;-60
2022/12/28 04:25:44;;;;;;;5.40;2.63;;;5.80;99.90;;;;;;5069216;28;20455;-60
2022/12/28 04:28:12;;;;;;;4.47;2.38;;;5.80;99.90;;;;;;5069253;28;20448;-61
2022/12/28 04:30:38;;;;;;;4.78;2.60;;;5.80;99.90;;;;;;5068915;28;20556;-59
2022/12/28 04:33:05;;;;;;;5.83;2.50;;;5.80;99.90;;;;;;5068697;28;20412;-59
2022/12/28 04:35:32;;;;;;;5.38;3.00;;;5.90;99.90;;;;;;5069043;28;20420;-59
2022/12/28 04:37:59;;;;;;;6.00;2.90;;;5.90;99.90;;;;;;5068872;28;20452;-59
2022/12/28 04:40:26;;;;;;;6.07;2.85;;;5.90;99.90;;;;;;5068892;28;20819;-59
2022/12/28 04:42:53;;;;;;;7.05;2.80;;;5.90;99.90;;;;;;5068677;28;20421;-61
2022/12/28 04:45:21;;;;;;;5.65;2.67;;;5.90;99.90;;;;;;5068706;28;20415;-60
2022/12/28 04:47:48;;;;;;;4.95;2.78;;;5.90;99.90;;;;;;5068357;28;20784;-60
2022/12/28 04:50:14;;;;;;;7.55;2.90;;;5.90;99.90;;;;;;5068344;28;20883;-61
2022/12/28 04:52:41;;;;;;;3.60;2.60;;;5.90;99.90;;;;;;5068588;28;20424;-61
2022/12/28 04:55:09;;;;;;;4.63;2.78;;;5.90;99.90;;;;;;5068350;28;20412;-58
2022/12/28 04:57:36;;;;;;;4.50;2.40;;;6.00;99.90;;;;;;5068145;28;20500;-60
2022/12/28 05:00:03;;;;;;;4.65;2.40;;;6.00;99.90;;;;;;5069659;28;20982;-60
2022/12/28 05:02:32;;;;;;;3.47;2.42;;;6.10;99.90;;;;;;5068100;28;20806;-59
2022/12/28 05:04:58;;;;;;;3.53;2.50;;;6.10;99.90;;;;;;5068031;28;20427;-59
2022/12/28 05:07:25;;;;;;;6.10;2.80;;;6.10;99.90;;;;;;5067877;28;20423;-58
2022/12/28 05:09:52;;;;;;;5.10;2.60;;;6.20;99.90;;;;;;5067636;28;20924;-59
2022/12/28 05:12:18;;;;;;;3.28;2.10;;;6.20;99.90;;;;;;5067646;28;20909;-59
2022/12/28 05:14:45;;;;;;;4.97;2.55;;;6.30;99.90;;;;;;5068573;28;20416;-59
2022/12/28 05:17:12;;;;;;;4.50;2.53;;;6.30;99.90;;;;;;5069440;28;20420;-60
2022/12/28 05:19:40;;;;;;;4.28;2.30;;;6.30;99.90;;;;;;5069515;28;20423;-60
2022/12/28 05:22:10;;;;;;;3.95;2.10;;;6.30;99.90;;;;;;5056622;28;20413;-59
2022/12/28 05:24:37;;;;;;;5.53;2.00;;;6.40;99.90;;;;;;5055519;28;20417;-60
2022/12/28 05:27:04;;;;;;;4.53;2.28;;;6.40;99.90;;;;;;5056547;28;20424;-60
2022/12/28 05:29:31;;;;;;;3.20;2.20;;;6.40;99.90;;;;;;5056055;28;20436;-60
2022/12/28 05:31:57;;;;;;;3.58;2.40;;;6.50;99.90;;;;;;5055514;28;20436;-60
2022/12/28 05:34:24;;;;;;;4.20;2.28;;;6.50;99.90;;;;;;5055379;28;20789;-61
2022/12/28 05:36:52;;;;;;;3.67;2.10;;;6.60;99.90;;;;;;5054618;28;20770;-59
2022/12/28 05:39:19;;;;;;;2.38;1.90;;;6.60;99.90;;;;;;5054068;28;20785;-59
2022/12/28 05:41:46;;;;;;;4.25;2.50;;;6.60;99.90;;;;;;5054396;28;20413;-60
2022/12/28 05:44:12;;;;;;;3.88;2.38;;;6.60;99.90;;;;;;5053887;28;20799;-61
2022/12/28 05:46:39;;;;;;;4.20;2.38;;;6.70;99.90;;;;;;5054143;28;20424;-60
2022/12/28 05:49:08;;;;;;;3.60;2.20;;;6.70;99.90;;;;;;5054134;28;20413;-60
2022/12/28 05:51:34;;;;;;;3.95;2.50;;;6.70;99.90;;;;;;5053899;28;20416;-59
2022/12/28 05:54:03;;;;;;;3.40;2.60;;;6.70;99.90;;;;;;5054116;28;20421;-60
2022/12/28 05:56:31;;;;;;;7.03;2.95;;;6.70;99.90;;;;;;5054099;28;20413;-60
2022/12/28 05:59:00;;;;;;;3.90;2.40;;;6.70;99.90;;;;;;5054212;28;20416;-60
2022/12/28 06:01:28;;;;;;;3.78;2.28;;;6.70;99.90;;;;;;5054185;28;20424;-60
2022/12/28 06:03:58;;;;;;;3.92;2.55;;;6.60;99.90;;;;;;5054127;28;20494;-63
2022/12/28 06:06:25;;;;;;;3.20;2.60;;;6.60;99.90;;;;;;5053837;28;20414;-62
2022/12/28 06:08:52;;;;;;;3.97;2.50;;;6.60;99.90;;;;;;5053592;28;20886;-63
2022/12/28 06:11:22;;;;;;;4.30;2.40;;;6.60;99.90;;;;;;5053585;28;20429;-63
2022/12/28 06:13:49;;;;;;;4.10;2.70;;;6.60;99.90;;;;;;5053926;28;20413;-64
2022/12/28 06:16:19;;;;;;;3.40;2.08;;;6.60;99.90;;;;;;5053492;28;20905;-62
2022/12/28 06:18:46;;;;;;;4.07;2.50;;;6.60;99.90;;;;;;5053578;28;20421;-62
2022/12/28 06:21:16;;;;;;;4.20;2.83;;;6.60;99.90;;;;;;5053429;28;20413;-61
2022/12/28 06:23:43;;;;;;;4.88;2.70;;;6.60;99.90;;;;;;5053629;28;20417;-62
2022/12/28 06:26:13;;;;;;;4.32;2.40;;;6.60;99.90;;;;;;5053621;28;20425;-62
2022/12/28 06:28:42;;;;;;;3.83;2.50;;;6.60;99.90;;;;;;5053587;28;20432;-62
2022/12/28 06:31:11;;;;;;;3.47;2.40;;;6.60;99.90;;;;;;5053244;28;20426;-64
2022/12/28 06:33:39;;;;;;;4.17;2.57;;;6.60;99.90;;;;;;5052268;28;20413;-62
2022/12/28 06:36:12;;;;;;;4.28;2.65;;;6.60;99.90;;;;;;5053413;28;20773;-60
2022/12/28 06:38:39;;;;;;;4.60;2.40;;;6.50;99.90;;;;;;5053238;28;20425;-62
2022/12/28 06:41:08;;;;;;;4.17;2.53;;;6.50;99.90;;;;;;5052872;28;20762;-61
2022/12/28 06:43:36;;;;;;;4.20;2.92;;;6.40;99.90;;;;;;5053151;28;20454;-61
2022/12/28 06:46:05;;;;;;;5.47;2.80;;;6.40;99.90;;;;;;5053067;28;20416;-61
2022/12/28 06:48:33;;;;;;;3.45;2.60;;;6.40;99.90;;;;;;5053158;28;20405;-61
2022/12/28 06:51:02;;;;;;;5.60;2.88;;;6.40;99.90;;;;;;5052989;28;20436;-62
2022/12/28 06:53:30;;;;;;;5.00;2.75;;;6.40;99.90;;;;;;5052850;28;20797;-60
2022/12/28 06:55:59;;;;;;;3.40;2.80;;;6.40;99.90;;;;;;5052998;28;20421;-61
2022/12/28 06:58:26;;;;;;;4.30;3.00;;;6.40;99.90;;;;;;5053267;28;20417;-61
2022/12/28 07:00:54;;;;;;;3.85;2.63;;;6.40;99.90;;;;;;5052559;28;20417;-61
2022/12/28 07:03:23;;;;;;;4.07;2.60;;;6.40;99.90;;;;;;5052654;28;20962;-60
2022/12/28 07:05:50;;;;;;;3.20;2.60;;;6.40;99.90;;;;;;5054253;28;20417;-62
2022/12/28 07:08:18;;;;;;;5.00;2.80;;;6.40;99.90;;;;;;5054639;28;20413;-60
2022/12/28 07:10:45;;;;;;;4.88;2.70;;;6.50;99.90;;;;;;5053143;28;20434;-61
2022/12/28 07:13:12;;;;;;;3.60;2.80;;;6.50;99.90;;;;;;5053701;28;20477;-62
2022/12/28 07:15:39;;;;;;;4.65;2.80;;;6.50;99.90;;;;;;5053386;28;20425;-61
2022/12/28 07:18:05;;;;;;;4.43;2.80;;;6.40;99.90;;;;;;5052892;28;20413;-60
2022/12/28 07:20:33;;;;;;;5.20;3.20;;;6.40;99.90;;;;;;5053176;28;20409;-62
2022/12/28 07:23:00;;;;;;;3.40;3.00;;;6.40;99.90;;;;;;5053023;28;20429;-62
2022/12/28 07:25:27;;;;;;;4.40;3.00;;;6.40;99.90;;;;;;5052961;28;20424;-62
2022/12/28 07:27:54;;;;;;;5.20;2.92;;;6.40;99.90;;;;;;5053489;28;20418;-60
2022/12/28 07:30:20;;;;;;;2.80;2.50;;;6.40;99.90;;;;;;5052340;28;20429;-62
2022/12/28 07:32:47;;;;;;;4.10;2.60;;;6.40;99.90;;;;;;5052298;28;20428;-60
2022/12/28 07:35:14;;;;;;;3.75;2.65;;;6.40;99.90;;;;;;5054369;28;20465;-63
2022/12/28 07:37:42;;;;;;;2.70;2.30;;;6.40;99.90;;;;;;5043912;28;20429;-61
2022/12/28 07:40:10;;;;;;;3.55;2.60;;;6.40;99.90;;;;;;5053932;28;20425;-62
2022/12/28 07:42:37;;;;;;;3.80;2.42;;;6.40;99.90;;;;;;5052777;28;20890;-62
2022/12/28 07:45:07;;;;;;;4.75;2.50;;;6.50;99.90;;;;;;5052363;28;20413;-64
2022/12/28 07:47:34;;;;;;;3.65;2.20;;;6.50;99.90;;;;;;5053199;28;20433;-61
2022/12/28 07:50:01;;;;;;;3.78;2.58;;;6.50;99.90;;;;;;5053651;28;20425;-62
2022/12/28 07:52:28;;;;;;;2.90;2.40;;;6.60;99.90;;;;;;5039585;28;20447;-61
2022/12/28 07:54:56;;;;;;;3.17;2.40;;;6.60;99.90;;;;;;5043659;28;20490;-62
2022/12/28 07:57:23;;;;;;;2.85;2.55;;;6.60;99.90;;;;;;5044394;28;20413;-61
2022/12/28 07:59:49;;;;;;;3.90;2.60;;;6.60;99.90;;;;;;5053547;28;20441;-61
2022/12/28 08:02:16;;;;;;;3.83;2.50;;;6.70;99.90;;;;;;5055052;28;20451;-62
2022/12/28 08:04:43;;;;;;;3.60;2.58;;;6.70;99.90;;;;;;5042985;28;20417;-61
2022/12/28 08:07:09;;;;;;;3.35;2.30;;;6.70;99.90;;;;;;5050662;28;20425;-61
2022/12/28 08:09:36;;;;;;;3.70;2.40;;;6.70;99.90;;;;;;5051711;28;20428;-62
2022/12/28 08:12:05;;;;;;;4.18;2.40;;;6.80;99.90;;;;;;5051781;28;20417;-60
2022/12/28 08:14:32;;;;;;;2.70;2.38;;;6.80;99.90;;;;;;5051067;28;20441;-62
2022/12/28 08:16:59;;;;;;;2.53;2.30;;;6.80;99.90;;;;;;5051632;28;20413;-62
2022/12/28 08:19:25;;;;;;;2.80;2.30;;;6.90;99.90;;;;;;5051703;28;20417;-61
2022/12/28 08:21:52;;;;;;;2.90;2.22;;;6.90;99.90;;;;;;5050907;28;20801;-62
2022/12/28 08:24:20;;;;;;;4.03;2.50;;;6.90;99.90;;;;;;5051832;28;20432;-62
2022/12/28 08:26:48;;;;;;;3.95;2.40;;;7.00;99.90;;;;;;5031382;28;20505;-61
2022/12/28 08:29:19;;;;;;;3.55;2.30;;;7.00;99.90;;;;;;5039445;28;20490;-61
2022/12/28 08:31:46;;;;;;;3.60;2.60;;;7.00;99.90;;;;;;5051047;28;20524;-62
2022/12/28 08:34:15;;;;;;;4.10;2.20;;;7.00;99.90;;;;;;5051253;28;20441;-62
2022/12/28 08:36:42;;;;;;;2.60;2.40;;;7.10;99.90;;;;;;5051074;28;20455;-62
2022/12/28 08:39:09;;;;;;;2.58;2.05;;;7.10;99.90;;;;;;5051383;28;20420;-62
2022/12/28 08:41:36;;;;;;;2.65;2.20;;;7.10;99.90;;;;;;5051357;28;20435;-63
2022/12/28 08:44:03;;;;;;;3.20;2.60;;;7.10;99.90;;;;;;5051240;28;20417;-61
2022/12/28 08:46:33;;;;;;;2.78;2.30;;;7.10;99.90;;;;;;5051419;28;20440;-62
2022/12/28 08:49:00;;;;;;;3.20;2.17;;;7.10;99.90;;;;;;5051486;28;20759;-61
2022/12/28 08:51:30;;;;;;;4.35;2.40;;;7.20;99.90;;;;;;5051349;28;20425;-62
2022/12/28 08:53:57;;;;;;;2.63;2.20;;;7.20;99.90;;;;;;5051225;28;20735;-62
2022/12/28 08:56:26;;;;;;;4.70;2.50;;;7.20;99.90;;;;;;5053084;28;20421;-62
2022/12/28 08:58:53;;;;;;;3.40;2.10;;;7.20;99.90;;;;;;5055181;28;20444;-63
2022/12/28 09:01:22;;;;;;;3.92;2.15;;;7.20;99.90;;;;;;5055031;28;20777;-62
2022/12/28 09:03:51;;;;;;;2.80;2.15;;;7.20;99.90;;;;;;5055276;28;20416;-62
2022/12/28 09:06:20;;;;;;;2.53;2.20;;;7.30;99.90;;;;;;5054983;28;20901;-62
2022/12/28 09:08:49;;;;;;;4.20;2.50;;;7.30;99.90;;;;;;5054991;28;20409;-60
2022/12/28 09:11:16;;;;;;;2.90;2.57;;;7.30;99.90;;;;;;5055016;28;20508;-61
2022/12/28 09:13:43;;;;;;;3.13;1.90;;;7.30;99.90;;;;;;5055285;28;20432;-62
2022/12/28 09:16:12;;;;;;;2.90;2.10;;;7.40;99.90;;;;;;5054819;28;20918;-62
2022/12/28 09:18:40;;;;;;;2.42;2.20;;;7.40;99.90;;;;;;5055204;28;20425;-62
2022/12/28 09:21:12;;;;;;;2.42;1.92;;;7.40;99.90;;;;;;5057496;28;20413;-61
2022/12/28 09:23:39;;;;;;;3.05;2.40;;;7.40;99.90;;;;;;5054653;28;20893;-61
2022/12/28 09:26:07;;;;;;;3.90;2.50;;;7.50;99.90;;;;;;5054850;28;20423;-61
2022/12/28 09:28:34;;;;;;;4.50;2.30;;;7.50;99.90;;;;;;5054664;28;20420;-62
2022/12/28 09:31:02;;;;;;;4.80;2.70;;;7.50;99.90;;;;;;5054657;28;20425;-62
2022/12/28 09:36:16;;;;;;;3.03;2.20;;;7.50;99.90;;;;;;5054653;28;20467;-62
2022/12/28 09:38:43;;;;;;;5.47;2.50;;;7.50;99.90;;;;;;5054914;28;20433;-61
2022/12/28 09:41:12;;;;;;;3.40;2.20;;;7.60;99.90;;;;;;5054918;28;20882;-61
2022/12/28 09:43:41;;;;;;;4.60;2.90;;;7.60;99.90;;;;;;5053951;28;20921;-63
2022/12/28 09:46:10;;;;;;;2.50;2.00;;;7.70;99.90;;;;;;5054212;28;20417;-62
2022/12/28 09:48:39;;;;;;;3.17;2.50;;;7.70;99.90;;;;;;5054421;28;20781;-62
2022/12/28 09:51:06;;;;;;;3.50;2.15;;;7.80;99.90;;;;;;5054334;28;20448;-62
2022/12/28 09:53:35;;;;;;;2.38;2.17;;;7.80;99.90;;;;;;5054014;28;20928;-62
2022/12/28 09:56:05;;;;;;;2.70;2.10;;;7.90;99.90;;;;;;5054258;28;20422;-62
2022/12/28 09:58:36;;;;;;;2.60;2.10;;;7.90;99.90;;;;;;5054366;28;20477;-61
2022/12/28 10:01:04;;;;;;;3.60;2.10;;;8.00;99.90;;;;;;5054337;28;20432;-62
2022/12/28 10:03:36;;;;;;;2.85;2.17;;;8.10;99.90;;;;;;5053959;28;20417;-61
2022/12/28 10:06:05;;;;;;;2.42;2.05;;;8.10;99.90;;;;;;5054300;28;20467;-62
2022/12/28 10:08:38;;;;;;;3.08;2.28;;;8.20;99.90;;;;;;5053707;28;20428;-61
2022/12/28 10:11:05;;;;;;;3.25;2.15;;;8.20;99.90;;;;;;5053994;28;20484;-61
2022/12/28 10:13:37;;;;;;;2.55;1.70;;;8.30;99.90;;;;;;5053926;28;20417;-62
2022/12/28 10:16:05;;;;;;;3.10;2.00;;;8.30;99.90;;;;;;5053492;28;20413;-62
2022/12/28 10:18:34;;;;;;;2.40;1.90;;;8.30;99.90;;;;;;5053814;28;20425;-62
2022/12/28 10:21:01;;;;;;;4.03;2.00;;;8.40;99.90;;;;;;5053661;28;20500;-63
2022/12/28 10:23:31;;;;;;;2.58;2.00;;;8.50;99.90;;;;;;5053371;28;20444;-63
2022/12/28 10:26:01;;;;;;;2.40;1.80;;;8.50;99.90;;;;;;5053623;28;20417;-62
2022/12/28 10:28:37;;;;;;;2.90;1.70;;;8.60;99.90;;;;;;5053672;28;20445;-61
2022/12/28 10:31:07;;;;;;;3.00;1.63;;;8.60;99.90;;;;;;5053037;28;20839;-63
2022/12/28 10:33:39;;;;;;;3.40;1.60;;;8.70;99.90;;;;;;5053167;28;20889;-62
2022/12/28 10:36:10;;;;;;;2.30;1.88;;;8.70;99.90;;;;;;5054564;28;20455;-61
2022/12/28 10:38:38;;;;;;;2.80;1.70;;;8.80;99.90;;;;;;5053544;28;20421;-59
2022/12/28 10:41:09;;;;;;;1.92;1.60;;;8.80;99.90;;;;;;5053799;28;20405;-59
2022/12/28 10:43:39;;;;;;;4.10;1.70;;;8.80;99.90;;;;;;5053385;28;20425;-59
2022/12/28 10:46:14;;;;;;;2.30;1.50;;;8.80;99.90;;;;;;5053366;28;20429;-58
2022/12/28 10:48:46;;;;;;;1.90;1.50;;;8.80;99.90;;;;;;5057836;28;20421;-62
2022/12/28 10:51:15;;;;;;;2.40;1.52;;;8.90;99.90;;;;;;5053026;28;20429;-62
2022/12/28 10:53:44;;;;;;;2.03;1.42;;;8.90;99.90;;;;;;5052949;28;20789;-62
2022/12/28 10:56:21;;;;;;;2.20;1.50;;;8.90;99.90;;;;;;5053942;28;20431;-62
2022/12/28 10:58:50;;;;;;;1.70;1.40;;;8.80;99.90;;;;;;5053765;28;20924;-61
2022/12/28 11:01:19;;;;;;;3.30;1.50;;;8.80;99.90;;;;;;5053488;28;20445;-61
2022/12/28 11:03:59;;;;;;;3.40;2.00;;;8.90;99.90;;;;;;5053196;28;20889;-62
2022/12/28 11:06:28;;;;;;;1.77;1.60;;;8.80;99.90;;;;;;5053266;28;20428;-64
2022/12/28 11:09:14;;;;;;;2.67;1.70;;;8.80;99.90;;;;;;5052649;28;20427;-62
2022/12/28 11:11:42;;;;;;;2.83;1.77;;;8.80;99.90;;;;;;5052661;28;20440;-62
2022/12/28 11:14:16;;;;;;;2.20;1.40;;;8.70;99.90;;;;;;5052601;28;20420;-62
2022/12/28 11:16:43;;;;;;;2.30;1.60;;;8.70;99.90;;;;;;5052473;28;20494;-62
2022/12/28 11:19:11;;;;;;;2.00;1.50;;;8.70;99.90;;;;;;5052862;28;20425;-61
2022/12/28 11:21:38;;;;;;;2.92;1.55;;;8.70;99.90;;;;;;5053647;28;20414;-62
2022/12/28 11:24:06;;;;;;;2.40;1.63;;;8.60;99.90;;;;;;5052730;28;20429;-63
2022/12/28 11:26:33;;;;;;;2.97;1.65;;;8.60;99.90;;;;;;5053266;28;20516;-62
2022/12/28 11:29:02;;;;;;;2.80;1.80;;;8.60;99.90;;;;;;5052840;28;20420;-62
2022/12/28 11:31:33;;;;;;;3.58;2.00;;;8.60;99.90;;;;;;5053449;28;20425;-62
2022/12/28 11:34:03;;;;;;;2.65;2.20;;;8.60;99.90;;;;;;5053220;28;20421;-62
2022/12/28 11:36:31;;;;;;;3.17;2.30;;;8.60;99.90;;;;;;5053051;28;20432;-63
2022/12/28 11:38:58;;;;;;;2.08;1.88;;;8.60;99.90;;;;;;5052669;28;20427;-63
2022/12/28 11:41:41;;;;;;;2.10;1.30;;;8.60;99.90;;;;;;5052973;28;20413;-61
2022/12/28 11:44:20;;;;;;;2.00;1.30;;;8.60;99.90;;;;;;5052378;28;20427;-62
2022/12/28 11:47:01;;;;;;;1.75;1.40;;;8.60;99.90;;;;;;5052487;28;20468;-62
2022/12/28 11:49:31;;;;;;;1.60;1.50;;;8.60;99.90;;;;;;5052402;28;20435;-63
2022/12/28 11:52:43;;;;;;;2.40;1.60;;;8.60;99.90;;;;;;5051897;28;20433;-62
2022/12/28 11:55:35;;;;;;;1.40;1.15;;;8.60;99.90;;;;;;5052364;28;20416;-63
2022/12/28 11:58:53;;;;;;;2.03;1.20;;;8.60;99.90;;;;;;5052142;28;20424;-61
2022/12/28 12:01:44;;;;;;;1.70;1.40;;;8.60;99.90;;;;;;5058395;28;20441;-60
2022/12/28 12:04:39;;;;;;;1.67;1.30;;;8.60;99.90;;;;;;5052046;28;20450;-60
2022/12/28 12:07:18;;;;;;;1.50;1.05;;;8.60;99.90;;;;;;5052873;28;20417;-58
2022/12/28 12:09:47;;;;;;;1.50;1.27;;;8.60;99.90;;;;;;5052971;28;20424;-60
2022/12/28 12:12:34;;;;;;;1.35;1.00;;;8.50;99.90;;;;;;5052505;28;20488;-60
2022/12/28 12:15:10;;;;;;;2.45;1.05;;;8.50;99.90;;;;;;5052533;28;20440;-59
2022/12/28 12:17:42;;;;;;;2.08;1.30;;;8.50;99.90;;;;;;5052155;28;20424;-59
2022/12/28 12:20:21;;;;;;;1.48;1.30;;;8.50;99.90;;;;;;5052492;28;20470;-60
2022/12/28 12:22:52;;;;;;;1.67;1.40;;;8.50;99.90;;;;;;5053106;28;20413;-59
2022/12/28 12:25:24;;;;;;;1.45;1.35;;;8.50;99.90;;;;;;5056054;28;20425;-60
2022/12/28 12:27:55;;;;;;;2.33;1.30;;;8.50;99.90;;;;;;5056261;28;20893;-60
2022/12/28 12:30:23;;;;;;;1.75;1.35;;;8.50;99.90;;;;;;5055264;28;20458;-60
2022/12/28 12:32:55;;;;;;;1.20;1.10;;;8.50;99.90;;;;;;5059390;28;20442;-60
2022/12/28 12:35:23;;;;;;;1.33;0.98;;;8.50;99.90;;;;;;5060484;28;20460;-61
2022/12/28 12:37:55;;;;;;;1.20;1.10;;;8.50;99.90;;;;;;5059880;28;20438;-59
2022/12/28 12:40:50;;;;;;;1.75;1.40;;;8.50;99.90;;;;;;5057573;28;20458;-59
2022/12/28 12:43:30;;;;;;;1.40;1.20;;;8.50;99.90;;;;;;5059979;28;20838;-59
2022/12/28 12:46:13;;;;;;;1.20;0.90;;;8.50;99.90;;;;;;5058263;28;20448;-60
2022/12/28 12:49:14;;;;;;;1.50;0.90;;;8.40;99.90;;;;;;5056969;28;20432;-59
2022/12/28 12:51:50;;;;;;;1.30;1.00;;;8.40;99.90;;;;;;5057498;28;20808;-59
2022/12/28 12:54:30;;;;;;;1.70;1.10;;;8.40;99.90;;;;;;5057317;28;20450;-59
2022/12/28 12:57:02;;;;;;;1.83;1.30;;;8.30;99.90;;;;;;5057518;28;20447;-59
2022/12/28 12:59:41;;;;;;;1.40;1.30;;;8.30;99.90;;;;;;5058675;28;20516;-60
2022/12/28 13:02:36;;;;;;;1.50;1.20;;;8.30;99.90;;;;;;5058326;28;20423;-61
2022/12/28 13:05:06;;;;;;;2.00;1.50;;;8.30;99.90;;;;;;5059445;28;20460;-61
2022/12/28 13:07:33;;;;;;;1.80;1.40;;;8.30;99.90;;;;;;5058899;28;20424;-60
2022/12/28 13:10:04;;;;;;;2.25;1.33;;;8.30;99.90;;;;;;5058774;28;20423;-61
2022/12/28 13:12:30;;;;;;;2.25;1.60;;;8.30;99.90;;;;;;5057268;28;20436;-59
2022/12/28 13:14:59;;;;;;;1.50;1.38;;;8.30;99.90;;;;;;5058948;28;20424;-60
2022/12/28 13:17:27;;;;;;;1.30;1.15;;;8.30;99.90;;;;;;5060893;28;20428;-60
2022/12/28 13:20:10;;;;;;;1.65;1.40;;;8.30;99.90;;;;;;5059906;28;20425;-60
2022/12/28 13:22:37;;;;;;;1.98;1.20;;;8.40;99.90;;;;;;5057154;28;20406;-60
2022/12/28 13:25:04;;;;;;;2.10;1.40;;;8.40;99.90;;;;;;5059170;28;20422;-59
2022/12/28 13:27:35;;;;;;;2.17;1.30;;;8.40;99.90;;;;;;5059445;28;20413;-59
2022/12/28 13:30:02;;;;;;;2.00;1.40;;;8.40;99.90;;;;;;5056065;28;20884;-59
2022/12/28 13:32:30;;;;;;;1.90;1.05;;;8.50;99.90;;;;;;5055467;28;20471;-61
2022/12/28 13:34:57;;;;;;;1.83;1.30;;;8.50;99.90;;;;;;5055762;28;20460;-60
2022/12/28 13:37:25;;;;;;;2.30;1.17;;;8.60;99.90;;;;;;5054782;28;20420;-59
2022/12/28 13:40:09;;;;;;;1.20;1.00;;;8.60;99.90;;;;;;5055176;28;20924;-59
2022/12/28 13:42:45;;;;;;;1.42;1.10;;;8.60;99.90;;;;;;5055009;28;20470;-60
2022/12/28 13:45:15;;;;;;;1.38;1.10;;;8.60;99.90;;;;;;5056556;28;20417;-61
2022/12/28 13:47:46;;;;;;;2.00;1.20;;;8.70;99.90;;;;;;5057045;28;20525;-60
2022/12/28 13:50:15;;;;;;;1.60;1.10;;;8.70;99.90;;;;;;5056231;28;20437;-60